createdAt,value
2022-10-12T00:00:35.863Z,4.06
2022-10-12T00:02:37.156Z,4.06
2022-10-12T00:06:40.245Z,4.06
2022-10-12T00:08:41.380Z,4.06
2022-10-12T00:10:42.419Z,4.06
2022-10-12T00:12:43.777Z,4.06
2022-10-12T00:16:46.571Z,4.06
2022-10-12T00:18:47.601Z,4.06
2022-10-12T00:22:50.787Z,4.06
2022-10-12T00:24:52.472Z,4.06
2022-10-12T00:26:53.692Z,4.06
2022-10-12T00:28:55.340Z,4.06
2022-10-12T00:30:56.717Z,4.06
2022-10-12T00:32:57.757Z,4.06
2022-10-12T00:34:59.370Z,4.05
2022-10-12T00:39:03.038Z,4.05
2022-10-12T00:41:04.661Z,4.05
2022-10-12T00:43:06.643Z,4.05
2022-10-12T00:45:08.172Z,4.05
2022-10-12T00:49:11.678Z,4.05
2022-10-12T00:51:13.085Z,4.05
2022-10-12T00:53:14.906Z,4.05
2022-10-12T00:55:16.034Z,4.05
2022-10-12T00:57:17.154Z,4.05
2022-10-12T00:59:18.547Z,4.05
2022-10-12T01:01:19.688Z,4.05
2022-10-12T01:05:22.075Z,4.05
2022-10-12T01:07:23.444Z,4.05
2022-10-12T01:11:26.183Z,4.05
2022-10-12T01:13:27.503Z,4.05
2022-10-12T01:15:28.871Z,4.05
2022-10-12T01:17:29.838Z,4.05
2022-10-12T01:21:32.708Z,4.05
2022-10-12T01:23:34.349Z,4.04
2022-10-12T01:25:36.216Z,4.04
2022-10-12T01:27:37.908Z,4.04
2022-10-12T01:31:40.702Z,4.04
2022-10-12T01:33:42.214Z,4.05
2022-10-12T01:37:45.321Z,4.04
2022-10-12T01:39:47.049Z,4.04
2022-10-12T01:43:49.134Z,4.04
2022-10-12T01:47:52.057Z,4.04
2022-10-12T01:49:53.703Z,4.04
2022-10-12T01:51:54.816Z,4.04
2022-10-12T01:53:56.441Z,4.04
2022-10-12T01:55:58.127Z,4.04
2022-10-12T01:57:59.765Z,4.04
2022-10-12T02:00:00.816Z,4.04
2022-10-12T02:04:04.566Z,4.04
2022-10-12T02:06:05.545Z,4.04
2022-10-12T02:08:07.340Z,4.04
2022-10-12T02:10:08.818Z,4.04
2022-10-12T02:12:10.216Z,4.04
2022-10-12T02:14:11.476Z,4.04
2022-10-12T02:16:12.672Z,4.04
2022-10-12T02:20:15.368Z,4.04
2022-10-12T02:22:16.767Z,4.04
2022-10-12T02:24:17.856Z,4.04
2022-10-12T02:26:19.333Z,4.04
2022-10-12T02:30:22.607Z,4.04
2022-10-12T02:32:23.864Z,4.04
2022-10-12T02:36:26.821Z,4.03
2022-10-12T02:38:28.684Z,4.04
2022-10-12T02:40:30.488Z,4.04
2022-10-12T02:42:37.960Z,4.04
2022-10-12T02:46:34.753Z,4.04
2022-10-12T02:48:36.665Z,4.04
2022-10-12T02:50:37.730Z,4.03
2022-10-12T02:52:39.385Z,4.03
2022-10-12T02:54:40.445Z,4.04
2022-10-12T02:56:42.261Z,4.03
2022-10-12T02:58:43.574Z,4.03
2022-10-12T03:02:46.215Z,4.03
2022-10-12T03:04:47.620Z,4.03
2022-10-12T03:06:49.206Z,4.03
2022-10-12T03:08:51.169Z,4.04
2022-10-12T03:12:54.289Z,4.03
2022-10-12T03:14:56.198Z,4.03
2022-10-12T03:18:58.858Z,4.03
2022-10-12T03:21:00.117Z,4.03
2022-10-12T03:23:53.672Z,4.03
2022-10-12T03:25:54.931Z,4.03
2022-10-12T03:27:56.868Z,4.03
2022-10-12T03:29:58.840Z,4.03
2022-10-12T03:32:00.799Z,4.03
2022-10-12T03:34:02.242Z,4.03
2022-10-12T03:36:04.148Z,4.02
2022-10-12T03:40:07.927Z,4.03
2022-10-12T03:42:09.240Z,4.02
2022-10-12T03:44:11.147Z,4.03
2022-10-12T03:46:13.055Z,4.03
2022-10-12T03:50:15.817Z,4.02
2022-10-12T03:52:16.890Z,4.02
2022-10-12T03:54:18.649Z,4.02
2022-10-12T03:56:19.978Z,4.02
2022-10-12T03:58:21.423Z,4.02
2022-10-12T04:00:22.451Z,4.02
2022-10-12T04:02:23.539Z,4.02
2022-10-12T04:06:26.962Z,4.02
2022-10-12T04:08:28.897Z,4.02
2022-10-12T04:10:30.798Z,4.02
2022-10-12T04:12:32.294Z,4.02
2022-10-12T04:14:33.575Z,4.02
2022-10-12T04:16:34.714Z,4.02
2022-10-12T04:18:35.919Z,4.02
2022-10-12T04:22:38.164Z,4.02
2022-10-12T04:26:41.226Z,4.02
2022-10-12T04:28:43.127Z,4.02
2022-10-12T04:30:44.635Z,4.02
2022-10-12T04:32:46.453Z,4.02
2022-10-12T04:34:48.009Z,4.02
2022-10-12T04:38:50.665Z,4.02
2022-10-12T04:40:52.213Z,4.02
2022-10-12T04:42:53.519Z,4.02
2022-10-12T04:44:55.007Z,4.02
2022-10-12T04:46:56.228Z,4.02
2022-10-12T04:48:58.170Z,4.02
2022-10-12T04:50:59.969Z,4.02
2022-10-12T04:55:03.129Z,4.02
2022-10-12T04:57:04.181Z,4.02
2022-10-12T04:59:05.882Z,4.01
2022-10-12T05:01:07.589Z,4.02
2022-10-12T05:05:10.823Z,4.01
2022-10-12T05:07:12.253Z,4.01
2022-10-12T05:09:14.604Z,4.02
2022-10-12T05:11:14.916Z,4.01
2022-10-12T05:13:16.254Z,4.01
2022-10-12T05:15:17.323Z,4.01
2022-10-12T05:17:18.458Z,4.01
2022-10-12T05:19:20.003Z,4.01
2022-10-12T05:21:21.857Z,4.01
2022-10-12T05:27:26.443Z,4.01
2022-10-12T05:29:27.753Z,4.01
2022-10-12T05:31:29.565Z,4.01
2022-10-12T05:33:31.414Z,4.01
2022-10-12T05:37:34.452Z,4.01
2022-10-12T05:39:36.166Z,4.01
2022-10-12T05:41:37.695Z,4.01
2022-10-12T05:43:39.232Z,4.01
2022-10-12T05:47:42.392Z,4.01
2022-10-12T05:49:44.241Z,4.01
2022-10-12T05:53:47.317Z,4.01
2022-10-12T05:55:48.708Z,4
2022-10-12T05:57:51.904Z,4
2022-10-12T05:59:51.524Z,4.01
2022-10-12T06:03:55.192Z,4
2022-10-12T06:05:56.591Z,4
2022-10-12T06:07:58.228Z,4
2022-10-12T06:09:59.784Z,4
2022-10-12T06:12:00.799Z,4
2022-10-12T06:14:02.533Z,4
2022-10-12T06:16:03.708Z,4
2022-10-12T06:20:07.148Z,4
2022-10-12T06:22:08.873Z,4
2022-10-12T06:24:09.942Z,4
2022-10-12T06:26:11.511Z,4
2022-10-12T06:30:14.198Z,4
2022-10-12T06:32:15.165Z,4
2022-10-12T06:34:16.545Z,4
2022-10-12T06:36:17.622Z,4
2022-10-12T06:38:19.496Z,4
2022-10-12T06:40:20.657Z,4
2022-10-12T06:42:22.026Z,4
2022-10-12T06:46:25.112Z,4
2022-10-12T06:48:26.992Z,4
2022-10-12T06:52:29.558Z,4
2022-10-12T06:54:30.871Z,4
2022-10-12T06:56:32.306Z,4
2022-10-12T06:58:34.229Z,4
2022-10-12T07:02:38.022Z,4
2022-10-12T07:04:39.066Z,4.01
2022-10-12T07:06:40.540Z,4.01
2022-10-12T07:08:42.045Z,4.01
2022-10-12T07:12:45.285Z,4.01
2022-10-12T07:14:46.881Z,4.02
2022-10-12T07:16:51.677Z,4.02
2022-10-12T07:18:50.021Z,4.02
2022-10-12T07:22:52.954Z,4.04
2022-10-12T07:24:53.936Z,4.04
2022-10-12T07:28:56.909Z,4.03
2022-10-12T07:30:58.717Z,4.03
2022-10-12T07:33:00.204Z,4.03
2022-10-12T07:35:01.165Z,4.03
2022-10-12T07:37:02.663Z,4.03
2022-10-12T07:39:03.873Z,4.03
2022-10-12T07:41:05.774Z,4.04
2022-10-12T07:43:15.540Z,4.04
2022-10-12T07:45:08.679Z,4.05
2022-10-12T07:47:10.511Z,4.04
2022-10-12T07:49:11.775Z,4.04
2022-10-12T07:51:13.603Z,4.05
2022-10-12T07:53:15.391Z,4.05
2022-10-12T07:57:18.180Z,4.05
2022-10-12T08:01:20.682Z,4.06
2022-10-12T08:03:21.940Z,4.08
2022-10-12T08:05:23.405Z,4.08
2022-10-12T08:07:24.915Z,4.09
2022-10-12T08:11:27.601Z,4.1
2022-10-12T08:13:28.749Z,4.1
2022-10-12T08:15:29.873Z,4.1
2022-10-12T08:17:31.740Z,4.11
2022-10-12T08:19:35.269Z,4.11
2022-10-12T08:21:33.812Z,4.11
2022-10-12T08:23:35.921Z,4.12
2022-10-12T08:27:38.563Z,4.12
2022-10-12T08:29:39.946Z,4.12
2022-10-12T08:31:41.360Z,4.12
2022-10-12T08:33:42.967Z,4.13
2022-10-12T08:35:44.577Z,4.13
2022-10-12T08:37:45.673Z,4.14
2022-10-12T08:39:47.215Z,4.14
2022-10-12T08:41:48.483Z,4.14
2022-10-12T08:43:49.428Z,4.14
2022-10-12T08:45:50.912Z,4.15
2022-10-12T08:47:51.908Z,4.15
2022-10-12T08:49:54.232Z,4.15
2022-10-12T08:53:57.367Z,4.16
2022-10-12T08:55:59.141Z,4.16
2022-10-12T09:00:02.653Z,4.16
2022-10-12T09:02:03.632Z,4.16
2022-10-12T09:04:04.777Z,4.17
2022-10-12T09:06:05.688Z,4.17
2022-10-12T09:10:07.662Z,4.17
2022-10-12T09:12:09.243Z,4.17
2022-10-12T09:14:10.256Z,4.18
2022-10-12T09:16:11.948Z,4.18
2022-10-12T09:18:13.004Z,4.17
2022-10-12T09:20:14.265Z,4.18
2022-10-12T09:22:15.534Z,4.18
2022-10-12T09:26:17.990Z,4.18
2022-10-12T09:28:19.734Z,4.18
2022-10-12T09:30:20.842Z,4.19
2022-10-12T09:32:22.308Z,4.19
2022-10-12T09:36:24.631Z,4.19
2022-10-12T09:38:26.197Z,4.19
2022-10-12T09:40:27.661Z,4.19
2022-10-12T09:42:28.499Z,4.19
2022-10-12T09:44:29.554Z,4.19
2022-10-12T09:46:30.394Z,4.19
2022-10-12T09:48:31.254Z,4.19
2022-10-12T09:52:34.010Z,4.19
2022-10-12T09:54:35.711Z,4.2
2022-10-12T09:56:37.017Z,4.2
2022-10-12T09:58:38.789Z,4.2
2022-10-12T10:00:39.886Z,4.2
2022-10-12T10:02:41.702Z,4.2
2022-10-12T10:07:27.774Z,4.2
2022-10-12T10:09:29.276Z,4.2
2022-10-12T10:11:30.788Z,4.2
2022-10-12T10:13:32.749Z,4.2
2022-10-12T10:15:33.883Z,4.2
2022-10-12T10:19:36.663Z,4.2
2022-10-12T10:21:37.746Z,4.2
2022-10-12T10:23:39.357Z,4.2
2022-10-12T10:25:40.821Z,4.2
2022-10-12T10:29:43.295Z,4.2
2022-10-12T10:31:44.738Z,4.2
2022-10-12T10:33:45.918Z,4.2
2022-10-12T10:35:49.970Z,4.2
2022-10-12T10:37:47.802Z,4.21
2022-10-12T10:39:49.069Z,4.2
2022-10-12T10:41:50.236Z,4.19
2022-10-12T10:45:53.139Z,4.19
2022-10-12T10:47:54.033Z,4.19
2022-10-12T10:49:55.480Z,4.19
2022-10-12T10:51:56.364Z,4.19
2022-10-12T10:53:57.927Z,4.19
2022-10-12T10:55:59.523Z,4.19
2022-10-12T11:00:26.319Z,4.19
2022-10-12T11:02:04.451Z,4.19
2022-10-12T11:04:05.558Z,4.19
2022-10-12T11:06:06.786Z,4.19
2022-10-12T11:08:07.743Z,4.19
2022-10-12T11:12:09.997Z,4.19
2022-10-12T11:14:11.792Z,4.18
2022-10-12T11:16:12.694Z,4.19
2022-10-12T11:18:14.306Z,4.18
2022-10-12T11:20:18.807Z,4.19
2022-10-12T11:22:16.989Z,4.18
2022-10-12T11:24:18.518Z,4.18
2022-10-12T11:28:20.662Z,4.18
2022-10-12T11:30:21.933Z,4.18
2022-10-12T11:34:24.159Z,4.18
2022-10-12T11:36:25.674Z,4.18
2022-10-12T11:38:27.249Z,4.18
2022-10-12T11:40:48.075Z,4.18
2022-10-12T11:44:31.827Z,4.18
2022-10-12T11:46:33.612Z,4.18
2022-10-12T11:48:34.599Z,4.18
2022-10-12T11:52:37.352Z,4.18
2022-10-12T11:54:38.899Z,4.18
2022-10-12T11:56:40.085Z,4.17
2022-10-12T11:58:59.761Z,4.17
2022-10-12T12:00:43.140Z,4.18
2022-10-12T12:02:44.445Z,4.17
2022-10-12T12:04:46.214Z,4.17
2022-10-12T12:06:47.510Z,4.17
2022-10-12T12:10:50.722Z,4.17
2022-10-12T12:12:52.327Z,4.17
2022-10-12T12:14:53.739Z,4.17
2022-10-12T12:16:54.746Z,4.17
2022-10-12T12:18:56.057Z,4.17
2022-10-12T12:20:57.783Z,4.17
2022-10-12T12:22:59.384Z,4.17
2022-10-12T12:27:01.916Z,4.17
2022-10-12T12:29:03.446Z,4.17
2022-10-12T12:31:05.213Z,4.17
2022-10-12T12:33:06.762Z,4.17
2022-10-12T12:35:07.656Z,4.17
2022-10-12T12:37:08.711Z,4.17
2022-10-12T12:39:09.994Z,4.17
2022-10-12T12:43:12.318Z,4.17
2022-10-12T12:45:13.136Z,4.17
2022-10-12T12:49:15.061Z,4.17
2022-10-12T12:53:17.460Z,4.17
2022-10-12T12:55:18.216Z,4.17
2022-10-12T12:59:21.024Z,4.17
2022-10-12T13:01:22.070Z,4.17
2022-10-12T13:03:23.122Z,4.17
2022-10-12T13:05:24.194Z,4.16
2022-10-12T13:09:27.010Z,4.17
2022-10-12T13:11:28.698Z,4.16
2022-10-12T13:13:29.803Z,4.16
2022-10-12T13:15:30.668Z,4.16
2022-10-12T13:17:33.432Z,4.16
2022-10-12T13:19:33.223Z,4.16
2022-10-12T13:21:34.945Z,4.16
2022-10-12T13:25:37.458Z,4.16
2022-10-12T13:27:39.195Z,4.16
2022-10-12T13:29:40.490Z,4.16
2022-10-12T13:31:42.195Z,4.16
2022-10-12T13:35:45.188Z,4.16
2022-10-12T13:37:46.645Z,4.16
2022-10-12T13:39:47.737Z,4.16
2022-10-12T13:41:48.777Z,4.16
2022-10-12T13:43:50.074Z,4.16
2022-10-12T13:45:51.757Z,4.16
2022-10-12T13:47:53.421Z,4.16
2022-10-12T13:51:56.278Z,4.16
2022-10-12T13:53:58.031Z,4.16
2022-10-12T13:58:01.144Z,4.16
2022-10-12T14:00:02.359Z,4.16
2022-10-12T14:02:04.057Z,4.16
2022-10-12T14:04:05.509Z,4.16
2022-10-12T14:08:08.366Z,4.15
2022-10-12T14:10:09.918Z,4.16
2022-10-12T14:12:10.905Z,4.16
2022-10-12T14:14:12.169Z,4.16
2022-10-12T14:18:14.934Z,4.15
2022-10-12T14:20:15.997Z,4.15
2022-10-12T14:24:18.490Z,4.15
2022-10-12T14:26:19.547Z,4.15
2022-10-12T14:28:20.627Z,4.16
2022-10-12T14:30:22.025Z,4.15
2022-10-12T14:34:24.785Z,4.15
2022-10-12T14:36:26.495Z,4.15
2022-10-12T14:38:27.365Z,4.15
2022-10-12T14:40:28.614Z,4.15
2022-10-12T14:42:29.726Z,4.15
2022-10-12T14:44:30.690Z,4.15
2022-10-12T14:46:32.224Z,4.15
2022-10-12T14:50:35.166Z,4.15
2022-10-12T14:52:36.774Z,4.15
2022-10-12T14:54:37.886Z,4.15
2022-10-12T14:56:39.350Z,4.15
2022-10-12T14:58:41.115Z,4.14
2022-10-12T15:00:42.422Z,4.14
2022-10-12T15:02:43.485Z,4.15
2022-10-12T15:06:50.639Z,4.15
2022-10-12T15:08:47.882Z,4.14
2022-10-12T15:10:49.099Z,4.14
2022-10-12T15:12:50.294Z,4.15
2022-10-12T15:16:52.626Z,4.14
2022-10-12T15:18:53.863Z,4.14
2022-10-12T15:22:56.316Z,4.14
2022-10-12T15:24:57.732Z,4.14
2022-10-12T15:26:58.640Z,4.14
2022-10-12T15:28:59.947Z,4.14
2022-10-12T15:33:02.362Z,4.14
2022-10-12T15:35:04.091Z,4.14
2022-10-12T15:39:07.329Z,4.14
2022-10-12T15:41:09.039Z,4.14
2022-10-12T15:43:09.959Z,4.14
2022-10-12T15:45:11.697Z,4.14
2022-10-12T15:49:18.828Z,4.14
2022-10-12T15:51:16.247Z,4.14
2022-10-12T15:53:17.703Z,4.14
2022-10-12T15:55:18.840Z,4.14
2022-10-12T15:59:20.773Z,4.14
2022-10-12T16:01:22.499Z,4.14
2022-10-12T16:03:26.139Z,4.14
2022-10-12T16:05:25.189Z,4.14
2022-10-12T16:07:26.621Z,4.14
2022-10-12T16:09:28.203Z,4.13
2022-10-12T16:11:29.612Z,4.14
2022-10-12T16:15:31.897Z,4.13
2022-10-12T16:17:33.163Z,4.13
2022-10-12T16:19:34.702Z,4.13
2022-10-12T16:21:35.966Z,4.13
2022-10-12T16:23:36.968Z,4.13
2022-10-12T16:25:38.761Z,4.13
2022-10-12T16:27:40.059Z,4.13
2022-10-12T16:31:43.410Z,4.13
2022-10-12T16:33:44.696Z,4.13
2022-10-12T16:35:46.361Z,4.13
2022-10-12T16:37:47.952Z,4.13
2022-10-12T16:39:49.141Z,4.13
2022-10-12T16:41:50.049Z,4.13
2022-10-12T16:43:51.313Z,4.13
2022-10-12T16:47:53.448Z,4.13
2022-10-12T16:49:54.402Z,4.13
2022-10-12T16:51:56.261Z,4.12
2022-10-12T16:52:40.053Z,4.13
2022-10-12T16:54:41.427Z,4.12
2022-10-12T16:56:43.218Z,4.12
2022-10-12T16:58:44.921Z,4.12
2022-10-12T17:00:46.524Z,4.12
2022-10-12T17:02:48.303Z,4.12
2022-10-12T17:04:50.124Z,4.12
2022-10-12T17:08:53.895Z,4.12
2022-10-12T17:10:55.453Z,4.12
2022-10-12T17:12:57.072Z,4.12
2022-10-12T17:14:58.376Z,4.12
2022-10-12T17:16:59.497Z,4.12
2022-10-12T17:19:00.654Z,4.12
2022-10-12T17:21:01.727Z,4.12
2022-10-12T17:25:04.745Z,4.12
2022-10-12T17:27:06.489Z,4.12
2022-10-12T17:29:08.328Z,4.12
2022-10-12T17:31:11.745Z,4.12
2022-10-12T17:35:12.203Z,4.12
2022-10-12T17:37:13.529Z,4.12
2022-10-12T17:41:15.889Z,4.12
2022-10-12T17:43:16.982Z,4.12
2022-10-12T17:45:18.795Z,4.12
2022-10-12T17:47:20.109Z,4.12
2022-10-12T17:51:22.648Z,4.12
2022-10-12T17:53:23.841Z,4.12
2022-10-12T17:57:26.203Z,4.12
2022-10-12T17:59:27.920Z,4.12
2022-10-12T18:01:29.131Z,4.11
2022-10-12T18:03:30.290Z,4.12
2022-10-12T18:07:33.584Z,4.12
2022-10-12T18:09:35.234Z,4.11
2022-10-12T18:11:36.547Z,4.12
2022-10-12T18:13:37.740Z,4.11
2022-10-12T18:17:40.364Z,4.11
2022-10-12T18:19:41.864Z,4.12
2022-10-12T18:21:43.633Z,4.11
2022-10-12T18:23:44.979Z,4.11
2022-10-12T18:25:46.706Z,4.11
2022-10-12T18:27:48.406Z,4.11
2022-10-12T18:29:49.731Z,4.11
2022-10-12T18:33:52.692Z,4.11
2022-10-12T18:35:54.337Z,4.11
2022-10-12T18:37:55.946Z,4.11
2022-10-12T18:39:57.734Z,4.11
2022-10-12T18:41:59.616Z,4.11
2022-10-12T18:44:00.790Z,4.11
2022-10-12T18:46:02.578Z,4.11
2022-10-12T18:50:05.227Z,4.11
2022-10-12T18:52:06.640Z,4.11
2022-10-12T18:54:08.404Z,4.11
2022-10-12T18:56:09.348Z,4.11
2022-10-12T18:58:10.701Z,4.11
2022-10-12T19:00:12.424Z,4.11
2022-10-12T19:02:14.223Z,4.11
2022-10-12T19:06:16.658Z,4.11
2022-10-12T19:08:17.939Z,4.1
2022-10-12T19:10:19.084Z,4.1
2022-10-12T19:12:20.593Z,4.1
2022-10-12T19:14:21.445Z,4.1
2022-10-12T19:16:23.356Z,4.1
2022-10-12T19:18:24.340Z,4.1
2022-10-12T19:22:27.404Z,4.1
2022-10-12T19:24:28.444Z,4.1
2022-10-12T19:26:29.458Z,4.1
2022-10-12T19:28:31.059Z,4.1
2022-10-12T19:32:33.883Z,4.1
2022-10-12T19:34:35.462Z,4.1
2022-10-12T19:36:36.511Z,4.1
2022-10-12T19:38:38.143Z,4.1
2022-10-12T19:40:39.796Z,4.1
2022-10-12T19:42:41.346Z,4.1
2022-10-12T19:44:43.270Z,4.1
2022-10-12T19:46:44.341Z,4.1
2022-10-12T19:48:46.133Z,4.1
2022-10-12T19:50:47.203Z,4.1
2022-10-12T19:52:48.469Z,4.1
2022-10-12T19:54:50.044Z,4.1
2022-10-12T19:58:52.542Z,4.1
2022-10-12T20:00:54.210Z,4.1
2022-10-12T20:02:55.404Z,4.1
2022-10-12T20:04:56.367Z,4.1
2022-10-12T20:06:57.595Z,4.1
2022-10-12T20:08:59.396Z,4.09
2022-10-12T20:11:00.307Z,4.1
2022-10-12T20:15:04.073Z,4.09
2022-10-12T20:17:05.673Z,4.09
2022-10-12T20:21:08.962Z,4.1
2022-10-12T20:23:10.319Z,4.09
2022-10-12T20:25:12.122Z,4.09
2022-10-12T20:27:13.788Z,4.09
2022-10-12T20:31:17.533Z,4.09
2022-10-12T20:33:18.496Z,4.09
2022-10-12T20:35:20.071Z,4.09
2022-10-12T20:37:21.587Z,4.09
2022-10-12T20:39:22.983Z,4.09
2022-10-12T20:41:24.046Z,4.09
2022-10-12T20:43:25.368Z,4.09
2022-10-12T20:45:26.822Z,4.09
2022-10-12T20:47:28.167Z,4.09
2022-10-12T20:49:29.203Z,4.09
2022-10-12T20:51:30.809Z,4.09
2022-10-12T20:53:32.344Z,4.08
2022-10-12T20:57:34.982Z,4.08
2022-10-12T20:59:36.573Z,4.08
2022-10-12T21:01:37.607Z,4.09
2022-10-12T21:03:39.211Z,4.08
2022-10-12T21:05:40.382Z,4.09
2022-10-12T21:07:41.346Z,4.08
2022-10-12T21:09:42.309Z,4.09
2022-10-12T21:13:45.314Z,4.08
2022-10-12T21:15:47.000Z,4.09
2022-10-12T21:17:48.301Z,4.08
2022-10-12T21:19:50.171Z,4.08
2022-10-12T21:21:51.433Z,4.08
2022-10-12T21:23:52.638Z,4.08
2022-10-12T21:25:53.924Z,4.08
2022-10-12T21:29:56.275Z,4.08
2022-10-12T21:31:57.843Z,4.08
2022-10-12T21:33:59.682Z,4.08
2022-10-12T21:36:01.530Z,4.08
2022-10-12T21:38:03.328Z,4.08
2022-10-12T21:40:04.638Z,4.08
2022-10-12T21:42:06.576Z,4.08
2022-10-12T21:46:08.928Z,4.08
2022-10-12T21:48:10.250Z,4.08
2022-10-12T21:50:11.560Z,4.08
2022-10-12T21:52:13.268Z,4.08
2022-10-12T21:56:16.907Z,4.08
2022-10-12T21:58:18.725Z,4.08
2022-10-12T22:00:20.422Z,4.08
2022-10-12T22:02:21.579Z,4.08
2022-10-12T22:04:22.741Z,4.08
2022-10-12T22:06:23.927Z,4.08
2022-10-12T22:08:25.639Z,4.08
2022-10-12T22:12:28.599Z,4.08
2022-10-12T22:14:29.688Z,4.07
2022-10-12T22:16:31.266Z,4.07
2022-10-12T22:18:32.412Z,4.07
2022-10-12T22:22:35.062Z,4.08
2022-10-12T22:24:36.183Z,4.08
2022-10-12T22:28:39.855Z,4.07
2022-10-12T22:30:41.291Z,4.07
2022-10-12T22:32:43.248Z,4.07
2022-10-12T22:34:44.684Z,4.07
2022-10-12T22:36:45.826Z,4.07
2022-10-12T22:38:47.498Z,4.07
2022-10-12T22:40:49.007Z,4.07
2022-10-12T22:44:52.549Z,4.07
2022-10-12T22:46:53.853Z,4.07
2022-10-12T22:48:55.794Z,4.07
2022-10-12T22:50:56.881Z,4.07
2022-10-12T22:55:00.550Z,4.07
2022-10-12T22:57:02.421Z,4.07
2022-10-12T22:59:04.089Z,4.06
2022-10-12T23:01:05.694Z,4.07
2022-10-12T23:03:07.375Z,4.07
2022-10-12T23:05:08.778Z,4.07
2022-10-12T23:07:09.802Z,4.07
2022-10-12T23:11:13.105Z,4.07
2022-10-12T23:13:14.649Z,4.07
2022-10-12T23:15:16.542Z,4.06
2022-10-12T23:17:17.971Z,4.06
2022-10-12T23:19:19.497Z,4.06
2022-10-12T23:21:21.222Z,4.06
2022-10-12T23:23:22.722Z,4.06
2022-10-12T23:27:25.209Z,4.06
2022-10-12T23:29:26.446Z,4.06
2022-10-12T23:31:27.576Z,4.06
2022-10-12T23:33:29.488Z,4.06
2022-10-12T23:37:32.752Z,4.06
2022-10-12T23:38:16.651Z,4.06
2022-10-12T23:40:18.322Z,4.06
2022-10-12T23:42:20.452Z,4.06
2022-10-12T23:44:21.142Z,4.06
2022-10-12T23:48:24.032Z,4.06
2022-10-12T23:50:25.916Z,4.06
2022-10-12T23:52:27.793Z,4.06
2022-10-12T23:54:28.914Z,4.06
2022-10-12T23:56:30.126Z,4.06
2022-10-12T23:58:31.249Z,4.06
